Imperial County Airport Imperial US
ICAO: KIPL
IATA: IPL
Category: Medium
Scheduled Services: No

Elevation: -54 ft
TransAlt. 18000 ft.

Airport Communications:
ASOS:132.175
LOS ANGELES CNTR:128.6
SAN DIEGO RDO:122.5
CTAF/UNICOM:122.7

KIPL Zoom In..

If you have problems with the map follow the link
https://www.worldairports.se/pages/airport.php?
ICAO=KIPL

Runways:

(A) RW 08 length 4501 ft width 75 ft
---- / hdg 76

(B) RW 14 length 5308 ft width 100 ft
---- / hdg 139

(C) RW 26 length 4501 ft width 75 ft
---- / hdg 256

(D) RW 32 length 5308 ft width 100 ft
---- / hdg 319

Location; KIPL
Day. 27 / Time. 04.53 Zulu
* Altimeter: 30.02
* Temperature: 15° c. 59°f.
* Wind from: 200° Speed 04 kn.
Dewpoint: 06° c.
Clouds: Clear (automated report).

KIPL 270453Z AUTO 20004KT CLR 15/06 A3002 RMK AO2 SLP167 T01500056


Wind From 200°
Speed 04 kn.

 
 
jpsmedia worldairports.se 2020   terms of use